Time;durP1;ratioP1;P1;durP2;ratioP2;P2;SDS_P1;SDS_P2;PMS_P1;PMS_P2;Temp;Humidity;BMP_temperature;BMP_pressure;BME280_temperature;BME280_humidity;BME280_pressure;Samples;Min_cycle;Max_cycle;Signal;HPM_P1;HPM_P2
2023/08/02 00:02:28;;;;;;;2.97;1.10;;;;;;;16.09;100.00;99277.02;5134373;56;1139076;-65
2023/08/02 00:07:34;;;;;;;1.23;1.00;;;;;;;16.09;100.00;99283.69;5111827;56;1138846;-64
2023/08/02 00:12:40;;;;;;;5.92;1.70;;;;;;;16.03;100.00;99287.11;5162024;56;1148057;-67
2023/08/02 00:17:46;;;;;;;4.37;1.20;;;;;;;15.97;100.00;99295.83;5124818;56;1138768;-65
2023/08/02 00:22:51;;;;;;;2.83;1.40;;;;;;;15.94;100.00;99305.52;5054078;57;1138603;-65
2023/08/02 00:27:57;;;;;;;4.20;1.20;;;;;;;15.93;100.00;99295.36;5054830;57;1138882;-67
2023/08/02 00:33:02;;;;;;;5.80;1.60;;;;;;;15.95;100.00;99309.84;5150484;56;1138769;-65
2023/08/02 00:38:08;;;;;;;4.13;1.50;;;;;;;15.91;100.00;99298.71;5139222;56;1138806;-67
2023/08/02 00:43:14;;;;;;;2.60;1.37;;;;;;;15.88;100.00;99311.61;5139002;56;1138818;-66
2023/08/02 00:48:19;;;;;;;9.57;2.20;;;;;;;15.83;100.00;99309.48;5159098;56;1138611;-66
2023/08/02 00:53:26;;;;;;;1.10;1.00;;;;;;;15.77;100.00;99317.69;5138893;56;1138759;-66
2023/08/02 00:58:32;;;;;;;1.93;1.40;;;;;;;15.73;100.00;99315.08;5054208;57;1138748;-67
2023/08/02 01:03:44;;;;;;;2.87;1.30;;;;;;;15.69;100.00;99319.11;5074417;57;1138854;-65
2023/08/02 01:09:00;;;;;;;13.35;1.75;;;;;;;15.66;100.00;99318.13;5054244;57;1138879;-65
2023/08/02 01:14:07;;;;;;;4.07;1.13;;;;;;;15.62;100.00;99319.50;5046601;56;1141063;-65
2023/08/02 01:19:13;;;;;;;1.27;1.17;;;;;;;15.58;100.00;99327.55;4993971;56;1139294;-64
2023/08/02 01:24:19;;;;;;;2.90;1.40;;;;;;;15.55;100.00;99326.57;4973723;57;1138558;-67
2023/08/02 01:29:27;;;;;;;2.50;1.30;;;;;;;15.51;100.00;99328.41;5050510;56;1138658;-67
2023/08/02 01:34:34;;;;;;;2.50;1.57;;;;;;;15.46;100.00;99327.09;5076490;56;1138688;-65
2023/08/02 01:39:39;;;;;;;4.87;1.60;;;;;;;15.40;100.00;99327.00;5056517;56;1138865;-66
2023/08/02 01:44:45;;;;;;;10.80;1.57;;;;;;;15.35;100.00;99328.03;5056815;56;1138624;-66
2023/08/02 01:49:50;;;;;;;5.53;1.45;;;;;;;15.31;100.00;99329.38;5055493;56;1141205;-66
2023/08/02 01:54:56;;;;;;;1.70;1.60;;;;;;;15.27;100.00;99327.60;4994522;56;1138608;-66
2023/08/02 02:00:01;;;;;;;4.63;1.80;;;;;;;15.24;100.00;99329.78;4975033;56;1138783;-66
2023/08/02 02:05:09;;;;;;;3.43;1.73;;;;;;;15.23;100.00;99324.13;4972988;56;1138893;-66
2023/08/02 02:10:15;;;;;;;3.30;1.73;;;;;;;15.21;100.00;99326.14;4993067;57;1139947;-65
2023/08/02 02:15:20;;;;;;;6.63;2.73;;;;;;;15.20;100.00;99333.30;5001952;57;1138429;-66
2023/08/02 02:20:26;;;;;;;3.20;1.90;;;;;;;15.07;100.00;99325.91;5038754;57;1138726;-65
2023/08/02 02:25:32;;;;;;;5.17;2.13;;;;;;;15.07;100.00;99325.91;5062637;57;1139023;-66
2023/08/02 02:30:38;;;;;;;8.90;2.07;;;;;;;15.08;100.00;99341.38;5043220;56;1138950;-65
2023/08/02 02:35:44;;;;;;;2.87;1.93;;;;;;;15.04;100.00;99340.06;5042963;57;1138961;-66
2023/08/02 02:40:51;;;;;;;4.87;1.70;;;;;;;15.04;100.00;99349.39;5043358;57;1138865;-66
2023/08/02 02:45:57;;;;;;;4.72;2.20;;;;;;;15.04;100.00;99353.37;5063245;57;1138988;-66
2023/08/02 02:51:02;;;;;;;2.37;1.83;;;;;;;14.98;100.00;99350.91;5107498;56;1138581;-66
2023/08/02 02:56:08;;;;;;;2.47;2.25;;;;;;;14.96;100.00;99360.10;5127766;56;1138818;-65
2023/08/02 03:01:14;;;;;;;2.93;2.30;;;;;;;14.95;100.00;99359.77;5147377;56;1138813;-65
2023/08/02 03:06:19;;;;;;;4.23;2.03;;;;;;;14.95;100.00;99359.77;5126616;56;1138647;-65
2023/08/02 03:11:25;;;;;;;5.53;2.50;;;;;;;14.93;100.00;99363.11;5127240;56;1139114;-66
2023/08/02 03:16:30;;;;;;;6.30;2.53;;;;;;;14.93;100.00;99362.61;5147202;56;1138821;-66
2023/08/02 03:21:36;;;;;;;3.13;2.20;;;;;;;14.94;100.00;99362.94;5054741;56;1138690;-65
2023/08/02 03:26:42;;;;;;;3.40;2.27;;;;;;;14.96;100.00;99360.94;5042742;57;1145611;-65
2023/08/02 03:31:47;;;;;;;3.72;2.28;;;;;;;14.95;100.00;99365.09;5062502;56;1138806;-66
2023/08/02 03:36:53;;;;;;;6.30;2.30;;;;;;;14.92;100.00;99369.44;5042975;57;1139037;-65
2023/08/02 03:41:58;;;;;;;4.28;2.12;;;;;;;14.93;100.00;99366.60;5042665;57;1138922;-66
2023/08/02 03:47:04;;;;;;;3.97;2.00;;;;;;;14.92;100.00;99372.09;5143573;56;1138840;-65
2023/08/02 03:52:10;;;;;;;10.30;3.03;;;;;;;14.90;100.00;99378.09;5127118;56;1138653;-65
2023/08/02 03:57:15;;;;;;;16.33;2.67;;;;;;;14.89;100.00;99373.77;5126861;56;1140617;-66
2023/08/02 04:02:21;;;;;;;3.23;2.60;;;;;;;14.84;100.00;99374.28;5139210;56;1141010;-66
2023/08/02 04:07:27;;;;;;;4.30;2.60;;;;;;;14.80;100.00;99373.50;5042987;56;1138836;-66
2023/08/02 04:12:32;;;;;;;4.50;2.40;;;;;;;14.81;100.00;99388.47;5170702;56;1138417;-65
2023/08/02 04:17:38;;;;;;;6.97;2.90;;;;;;;14.84;100.00;99376.11;5225039;56;1138638;-65
2023/08/02 04:22:43;;;;;;;4.77;2.90;;;;;;;14.84;100.00;99379.61;5153122;57;1138598;-65
2023/08/02 04:28:01;;;;;;;5.73;2.30;;;;;;;14.87;100.00;99383.26;5134353;56;1138924;-66
2023/08/02 04:33:07;;;;;;;3.15;2.72;;;;;;;14.89;100.00;99387.91;5132948;56;1138727;-65
2023/08/02 04:38:13;;;;;;;3.73;2.70;;;;;;;14.93;100.00;99379.08;5158541;56;1138866;-66
2023/08/02 04:43:18;;;;;;;4.00;2.40;;;;;;;15.00;100.00;99380.02;5122024;56;1138582;-67
2023/08/02 04:48:24;;;;;;;4.93;3.00;;;;;;;15.04;100.00;99380.01;5103798;56;1139118;-65
2023/08/02 04:53:30;;;;;;;7.73;2.10;;;;;;;15.09;100.00;99381.66;5120711;57;1138650;-65
2023/08/02 04:58:35;;;;;;;3.57;2.60;;;;;;;15.13;100.00;99384.27;5146286;55;1138442;-65
2023/08/02 05:03:43;;;;;;;7.70;3.53;;;;;;;15.29;100.00;99396.16;5055610;55;1138690;-64
2023/08/02 05:08:50;;;;;;;4.08;2.42;;;;;;;15.29;100.00;99396.16;5124981;56;1138825;-68
2023/08/02 05:13:55;;;;;;;5.07;2.60;;;;;;;15.37;100.00;99397.45;5138644;57;1138761;-65
2023/08/02 05:19:01;;;;;;;3.50;2.40;;;;;;;15.43;100.00;99398.56;5119771;56;1138524;-66
2023/08/02 05:24:07;;;;;;;4.13;2.57;;;;;;;15.46;100.00;99396.88;5116837;57;1138882;-66
2023/08/02 05:29:12;;;;;;;6.90;2.37;;;;;;;15.42;100.00;99400.42;5043804;57;1138817;-66
2023/08/02 05:34:18;;;;;;;3.47;2.30;;;;;;;15.51;100.00;99405.18;5012224;57;1148215;-66
2023/08/02 05:39:23;;;;;;;7.53;2.13;;;;;;;15.68;100.00;99412.58;5058428;57;1138397;-66
2023/08/02 05:44:29;;;;;;;6.30;2.20;;;;;;;15.82;100.00;99407.30;5088984;57;1138679;-65
2023/08/02 05:49:35;;;;;;;4.95;1.98;;;;;;;15.98;100.00;99414.83;5033663;57;1138549;-66
2023/08/02 05:54:40;;;;;;;2.80;1.90;;;;;;;16.17;100.00;99416.98;5051775;57;1139064;-66
2023/08/02 05:59:46;;;;;;;7.80;2.20;;;;;;;16.34;100.00;99406.98;5041435;57;1138542;-65
2023/08/02 06:04:52;;;;;;;2.53;1.83;;;;;;;16.55;100.00;99416.41;5050813;57;1139013;-66
2023/08/02 06:09:57;;;;;;;4.33;1.87;;;;;;;16.75;100.00;99418.05;5036137;57;1138647;-66
2023/08/02 06:15:03;;;;;;;2.88;1.98;;;;;;;16.91;100.00;99421.03;5071463;57;1138888;-66
2023/08/02 06:20:09;;;;;;;4.70;1.90;;;;;;;16.93;100.00;99409.15;5044234;57;1139049;-66
2023/08/02 06:25:15;;;;;;;4.90;2.03;;;;;;;17.06;100.00;99409.81;5104618;56;1138540;-65
2023/08/02 06:30:21;;;;;;;4.03;2.07;;;;;;;17.27;100.00;99415.17;5084146;56;1138652;-66
2023/08/02 06:35:26;;;;;;;2.33;1.42;;;;;;;17.38;100.00;99415.20;5064151;56;1138806;-65
2023/08/02 06:40:32;;;;;;;7.97;2.03;;;;;;;17.47;100.00;99430.92;5064284;55;1138719;-67
2023/08/02 06:45:37;;;;;;;2.37;1.60;;;;;;;17.54;100.00;99421.14;5072035;56;1138741;-66
2023/08/02 06:50:43;;;;;;;6.83;2.10;;;;;;;17.64;100.00;99430.20;5049446;56;1138574;-66
2023/08/02 06:55:49;;;;;;;4.80;2.20;;;;;;;17.75;100.00;99409.62;5051049;56;1138735;-67
2023/08/02 07:00:54;;;;;;;6.80;2.40;;;;;;;17.85;100.00;99421.36;5044685;56;1138763;-66
2023/08/02 07:06:00;;;;;;;4.57;2.30;;;;;;;18.01;100.00;99424.27;5063783;56;1138583;-66
2023/08/02 07:11:06;;;;;;;8.20;2.50;;;;;;;18.23;100.00;99408.47;5042522;56;1139189;-65
2023/08/02 07:16:11;;;;;;;5.72;1.95;;;;;;;18.37;100.00;99406.70;5063181;56;1138996;-66
2023/08/02 07:21:18;;;;;;;5.47;2.20;;;;;;;18.45;100.00;99414.59;4994659;57;1139107;-67
2023/08/02 07:26:24;;;;;;;4.85;1.90;;;;;;;18.53;100.00;99406.39;5058408;56;1138948;-65
2023/08/02 07:31:29;;;;;;;7.47;2.23;;;;;;;18.53;100.00;99401.87;5113464;56;1138755;-66
2023/08/02 07:36:35;;;;;;;3.47;1.80;;;;;;;18.62;100.00;99398.56;5158139;56;1138874;-66
2023/08/02 07:41:41;;;;;;;2.45;2.10;;;;;;;18.71;100.00;99393.34;5054084;56;1138543;-66
2023/08/02 07:46:46;;;;;;;5.83;2.83;;;;;;;18.79;100.00;99413.80;5054257;56;1138763;-67
2023/08/02 07:51:53;;;;;;;12.55;2.90;;;;;;;18.63;100.00;99409.59;5132684;56;1138906;-66
2023/08/02 07:56:59;;;;;;;6.22;2.72;;;;;;;18.72;100.00;99403.03;5145046;56;1140733;-67
2023/08/02 08:02:04;;;;;;;6.22;2.50;;;;;;;18.83;100.00;99410.50;5081373;56;1138821;-67
2023/08/02 08:07:10;;;;;;;13.80;2.65;;;;;;;18.80;100.00;99412.74;5050858;56;1138823;-66
2023/08/02 08:12:16;;;;;;;4.42;2.70;;;;;;;18.79;100.00;99405.22;5076555;56;1140660;-67
2023/08/02 08:17:21;;;;;;;3.17;2.20;;;;;;;19.03;100.00;99398.53;5085387;56;1138782;-67
2023/08/02 08:22:29;;;;;;;2.77;1.98;;;;;;;19.14;100.00;99407.33;5054387;56;1138949;-66
2023/08/02 08:27:36;;;;;;;5.42;2.08;;;;;;;19.29;100.00;99416.55;5074790;56;1138774;-66
2023/08/02 08:32:41;;;;;;;4.87;2.35;;;;;;;19.29;100.00;99406.65;5069031;56;1138847;-67
2023/08/02 08:37:49;;;;;;;1.95;1.67;;;;;;;19.30;100.00;99412.33;5056620;56;1138957;-66
2023/08/02 08:42:56;;;;;;;5.85;2.10;;;;;;;19.48;100.00;99405.56;5066813;56;1139067;-67
2023/08/02 08:48:03;;;;;;;8.80;2.30;;;;;;;19.76;100.00;99400.05;5088655;56;1138660;-67
2023/08/02 08:53:14;;;;;;;4.87;2.20;;;;;;;19.76;100.00;99402.22;5072202;56;1138986;-67
2023/08/02 08:58:20;;;;;;;4.80;1.84;;;;;;;19.90;100.00;99384.27;5048712;56;1138830;-67
2023/08/02 09:03:27;;;;;;;6.17;2.05;;;;;;;20.05;100.00;99383.53;5058764;56;1138885;-67
2023/08/02 09:08:47;;;;;;;2.70;1.60;;;;;;;20.17;100.00;99377.02;5100638;56;1138903;-67
2023/08/02 09:14:16;;;;;;;3.20;1.90;;;;;;;20.31;100.00;99366.59;5053560;56;1138821;-65
2023/08/02 09:19:30;;;;;;;3.17;1.65;;;;;;;20.25;100.00;99363.39;5095442;56;1138842;-65
2023/08/02 09:24:37;;;;;;;5.53;1.67;;;;;;;20.59;100.00;99360.45;5094329;56;1138774;-66
2023/08/02 09:29:54;;;;;;;5.10;2.52;;;;;;;20.84;100.00;99374.50;5080637;56;1138575;-67
2023/08/02 09:34:59;;;;;;;6.80;3.42;;;;;;;21.06;100.00;99380.72;5091563;56;1138820;-66
2023/08/02 09:40:12;;;;;;;3.37;1.90;;;;;;;21.15;100.00;99368.36;5090481;56;1138994;-65
2023/08/02 09:45:14;;;;;;;10.60;3.00;;;;;;;21.21;100.00;99368.88;5139005;56;1139084;-66
2023/08/02 09:50:20;;;;;;;4.62;1.62;;;;;;;21.36;100.00;99376.96;5133418;56;1140780;-66
2023/08/02 09:55:26;;;;;;;3.64;1.80;;;;;;;21.63;100.00;99395.09;5068058;56;1138753;-67
2023/08/02 10:00:32;;;;;;;4.77;2.13;;;;;;;21.43;100.00;99384.97;5078167;56;1138739;-66
2023/08/02 10:05:41;;;;;;;2.63;1.57;;;;;;;21.18;100.00;99387.58;5078542;56;1138593;-67
2023/08/02 10:10:48;;;;;;;4.03;1.90;;;;;;;20.88;100.00;99390.52;5099546;56;1138791;-66
2023/08/02 10:15:54;;;;;;;6.95;1.90;;;;;;;20.66;100.00;99390.78;5083942;56;1139538;-67
2023/08/02 10:21:01;;;;;;;7.30;3.80;;;;;;;20.57;100.00;99396.61;5110387;56;1138752;-66
2023/08/02 10:26:07;;;;;;;3.33;1.77;;;;;;;20.61;100.00;99393.81;5097532;56;1138674;-65
2023/08/02 10:31:14;;;;;;;5.00;1.77;;;;;;;20.70;100.00;99387.16;5105310;56;1138901;-65
2023/08/02 10:36:20;;;;;;;3.62;1.50;;;;;;;20.87;100.00;99373.56;5174088;56;1138631;-67
2023/08/02 10:41:27;;;;;;;5.25;1.98;;;;;;;21.06;100.00;99375.86;5105480;56;1138937;-66
2023/08/02 10:46:33;;;;;;;5.18;2.62;;;;;;;21.11;100.00;99385.43;5063104;56;1138765;-65
2023/08/02 10:51:41;;;;;;;3.83;1.60;;;;;;;21.41;100.00;99370.91;5087474;56;1138536;-67
2023/08/02 10:57:04;;;;;;;9.88;1.82;;;;;;;21.65;100.00;99366.63;5058359;56;1138472;-67
2023/08/02 11:02:12;;;;;;;4.80;1.70;;;;;;;21.62;100.00;99354.94;5091480;55;1138927;-65
2023/08/02 11:07:21;;;;;;;3.60;1.50;;;;;;;21.59;100.00;99349.47;5142828;55;1138920;-67
2023/08/02 11:12:28;;;;;;;2.65;1.50;;;;;;;21.57;100.00;99334.58;5162936;56;1138903;-67
2023/08/02 11:17:34;;;;;;;5.03;1.60;;;;;;;21.80;100.00;99320.02;5105570;56;1139314;-66
2023/08/02 11:22:40;;;;;;;3.55;1.65;;;;;;;22.00;100.00;99311.77;5095195;56;1138912;-68
2023/08/02 11:27:45;;;;;;;8.26;1.32;;;;;;;22.19;100.00;99308.05;5114082;56;1138876;-67
2023/08/02 11:32:51;;;;;;;4.92;2.05;;;;;;;22.52;100.00;99306.34;5087733;56;1138697;-67
2023/08/02 11:37:57;;;;;;;3.85;1.37;;;;;;;22.70;100.00;99290.67;5085141;56;1138682;-67
2023/08/02 11:43:03;;;;;;;4.92;1.30;;;;;;;22.92;100.00;99285.63;5128495;56;1138675;-67
2023/08/02 11:48:26;;;;;;;1.20;1.10;;;;;;;23.26;100.00;99281.39;5091952;56;1138738;-67
2023/08/02 11:53:32;;;;;;;5.60;1.10;;;;;;;23.23;100.00;99275.92;5092951;56;1138828;-67
2023/08/02 11:58:38;;;;;;;1.32;1.22;;;;;;;23.32;100.00;99273.20;5088041;56;1138566;-64
2023/08/02 12:04:01;;;;;;;4.08;1.60;;;;;;;23.31;100.00;99285.05;5058367;57;1138806;-64
2023/08/02 12:09:07;;;;;;;3.42;1.12;;;;;;;23.38;100.00;99266.86;5058151;57;1138691;-63
2023/08/02 12:14:13;;;;;;;4.42;1.60;;;;;;;23.33;100.00;99273.50;5059294;56;1138717;-64
2023/08/02 12:19:19;;;;;;;2.05;1.42;;;;;;;23.24;100.00;99261.91;5078253;57;1138736;-67
2023/08/02 12:24:24;;;;;;;3.77;1.32;;;;;;;23.16;88.10;99257.69;5039029;56;1138876;-68
2023/08/02 12:29:30;;;;;;;1.67;1.43;;;;;;;23.15;86.82;99255.52;5135338;56;1137032;-67
2023/08/02 12:34:36;;;;;;;0.93;0.90;;;;;;;23.11;86.61;99253.50;5109882;56;1136892;-66
2023/08/02 12:39:41;;;;;;;5.83;1.70;;;;;;;23.28;82.77;99251.78;5063270;56;1136861;-66
2023/08/02 12:44:47;;;;;;;3.72;1.10;;;;;;;23.46;86.63;99249.00;5143079;56;1136738;-67
2023/08/02 12:49:53;;;;;;;4.08;1.40;;;;;;;23.57;83.67;99239.81;5105528;56;1136594;-67
2023/08/02 12:54:59;;;;;;;4.20;1.45;;;;;;;23.53;84.21;99242.16;5013026;57;1136730;-66
2023/08/02 13:00:06;;;;;;;3.20;1.07;;;;;;;23.41;81.49;99227.28;5014509;56;1136519;-66
2023/08/02 13:05:12;;;;;;;5.75;1.27;;;;;;;23.38;82.52;99230.44;5037085;57;1136558;-66
2023/08/02 13:10:17;;;;;;;2.92;1.62;;;;;;;23.43;83.11;99210.33;5036276;56;1136745;-66
2023/08/02 13:15:23;;;;;;;2.27;1.05;;;;;;;23.63;84.46;99197.05;4990344;57;1136539;-67
2023/08/02 13:20:29;;;;;;;5.10;1.67;;;;;;;24.00;86.19;99194.34;5064173;56;1136875;-67
2023/08/02 13:25:34;;;;;;;4.57;1.80;;;;;;;24.08;84.70;99196.69;5025329;57;1136591;-66
2023/08/02 13:30:40;;;;;;;1.85;1.30;;;;;;;24.08;84.50;99185.87;5037025;57;1136653;-67
2023/08/02 13:35:45;;;;;;;3.95;1.17;;;;;;;24.07;84.66;99178.02;5064147;56;1136676;-66
2023/08/02 13:40:52;;;;;;;2.42;1.34;;;;;;;24.01;83.06;99164.10;5060639;56;1137094;-68
2023/08/02 13:45:58;;;;;;;2.65;0.80;;;;;;;24.17;81.50;99158.77;4883523;58;1137161;-67
2023/08/02 13:51:03;;;;;;;1.85;1.60;;;;;;;24.37;79.24;99154.33;4787080;59;1136973;-66
2023/08/02 13:56:09;;;;;;;7.13;2.53;;;;;;;24.42;81.84;99144.97;4891121;57;1136761;-67
2023/08/02 14:01:15;;;;;;;2.83;1.62;;;;;;;24.36;80.70;99152.69;4829917;58;1136864;-67
2023/08/02 14:06:20;;;;;;;2.35;1.65;;;;;;;24.23;79.89;99153.48;5068923;56;1136935;-68
2023/08/02 14:11:26;;;;;;;2.50;1.30;;;;;;;24.25;80.00;99144.10;5039636;56;1136715;-69
2023/08/02 14:16:32;;;;;;;3.27;1.40;;;;;;;24.30;80.83;99138.78;4970356;57;1137029;-67
2023/08/02 14:21:37;;;;;;;1.22;1.00;;;;;;;24.34;80.13;99133.19;4992025;56;1136596;-66
2023/08/02 14:26:43;;;;;;;1.98;1.50;;;;;;;24.30;79.51;99114.45;5002103;56;1136798;-67
2023/08/02 14:31:48;;;;;;;2.15;1.10;;;;;;;24.25;79.05;99122.48;4874675;58;1136629;-66
2023/08/02 14:36:54;;;;;;;5.78;1.50;;;;;;;24.25;79.30;99099.52;4995227;57;1136452;-67
2023/08/02 14:42:02;;;;;;;1.33;1.07;;;;;;;24.23;79.78;99098.94;4960009;57;1136933;-66
2023/08/02 14:47:07;;;;;;;6.17;2.08;;;;;;;24.33;80.20;99093.71;4997302;57;1136739;-66
2023/08/02 14:52:13;;;;;;;5.28;1.50;;;;;;;24.61;81.03;99083.38;4976228;57;1136572;-66
2023/08/02 14:57:19;;;;;;;8.30;3.05;;;;;;;24.70;80.32;99089.22;4989147;56;1136570;-65
2023/08/02 15:02:24;;;;;;;6.20;4.08;;;;;;;24.71;79.74;99074.64;5010594;57;1136681;-66
2023/08/02 15:07:30;;;;;;;2.22;1.20;;;;;;;24.64;78.08;99062.63;4980816;57;1136747;-68
2023/08/02 15:12:35;;;;;;;3.58;1.30;;;;;;;24.70;80.25;99058.95;4972746;57;1136703;-67
2023/08/02 15:17:42;;;;;;;2.08;1.72;;;;;;;24.75;77.62;99063.06;5006453;57;1136527;-68
2023/08/02 15:22:47;;;;;;;2.83;1.98;;;;;;;24.73;75.54;99063.05;4972470;57;1137062;-67
2023/08/02 15:27:53;;;;;;;2.10;2.00;;;;;;;24.68;76.33;99050.25;4976908;57;1136952;-66
2023/08/02 15:32:58;;;;;;;2.25;1.62;;;;;;;24.70;67.03;99052.72;4999099;57;1136913;-67
2023/08/02 15:38:04;;;;;;;1.52;1.25;;;;;;;24.85;69.42;99037.55;4910202;58;1136636;-67
2023/08/02 15:43:10;;;;;;;1.40;0.95;;;;;;;25.00;67.25;99019.41;4916440;57;1136677;-67
2023/08/02 15:48:15;;;;;;;1.12;1.10;;;;;;;25.06;63.28;99020.27;4922887;57;1136844;-67
2023/08/02 15:53:21;;;;;;;1.65;1.17;;;;;;;25.14;62.16;98995.50;4935504;57;1136556;-66
2023/08/02 15:58:28;;;;;;;1.82;1.17;;;;;;;25.22;60.86;99007.23;5017765;57;1136522;-67
2023/08/02 16:03:39;;;;;;;2.98;1.20;;;;;;;25.22;60.13;98993.17;5011204;56;1136544;-64
2023/08/02 16:08:41;;;;;;;2.85;1.00;;;;;;;25.19;55.55;98981.52;5039928;56;1136765;-64
2023/08/02 16:13:46;;;;;;;3.50;1.57;;;;;;;25.10;59.37;98972.72;5029476;56;1136821;-65
2023/08/02 16:18:52;;;;;;;1.42;0.90;;;;;;;24.99;58.63;98985.83;5073266;56;1136793;-64
2023/08/02 16:23:58;;;;;;;2.80;1.47;;;;;;;24.86;57.25;99001.33;5082817;56;1136949;-64
2023/08/02 16:29:03;;;;;;;2.85;2.10;;;;;;;24.78;60.37;98996.32;5107399;56;1136929;-64
2023/08/02 16:34:09;;;;;;;1.90;1.05;;;;;;;24.71;59.99;98994.87;5091745;56;1136933;-65
2023/08/02 16:39:15;;;;;;;2.50;1.37;;;;;;;24.62;59.58;98997.69;5112567;55;1136987;-63
2023/08/02 16:44:21;;;;;;;1.98;1.12;;;;;;;24.56;60.68;99004.10;5096464;56;1136556;-64
2023/08/02 16:49:26;;;;;;;1.12;1.10;;;;;;;24.50;60.87;99006.72;5049246;56;1136805;-63
2023/08/02 16:54:32;;;;;;;6.72;1.70;;;;;;;24.45;63.08;99011.20;5049530;56;1136728;-64
2023/08/02 16:59:38;;;;;;;5.65;1.27;;;;;;;24.39;63.22;99013.56;4968982;57;1137076;-64
2023/08/02 17:04:43;;;;;;;1.72;1.20;;;;;;;24.30;62.56;98992.04;5029249;56;1136946;-65
2023/08/02 17:09:49;;;;;;;2.05;1.37;;;;;;;24.23;63.73;98988.66;4849510;58;1136881;-64
2023/08/02 17:14:54;;;;;;;6.90;1.17;;;;;;;24.13;64.12;98995.55;5018210;56;1136667;-64
2023/08/02 17:20:00;;;;;;;1.25;0.80;;;;;;;24.06;65.31;99006.20;5011146;57;1136713;-64
2023/08/02 17:25:05;;;;;;;1.30;1.20;;;;;;;23.99;66.00;98996.06;5006670;56;1136852;-65
2023/08/02 17:30:12;;;;;;;4.30;1.00;;;;;;;23.94;66.87;98990.59;5005540;57;1137058;-64
2023/08/02 17:35:17;;;;;;;6.70;1.20;;;;;;;23.87;65.39;99012.33;5013250;56;1136951;-64
2023/08/02 17:40:23;;;;;;;3.47;1.95;;;;;;;23.81;65.94;98994.42;5025131;56;1136902;-64
2023/08/02 17:45:31;;;;;;;6.70;1.80;;;;;;;23.75;65.70;98989.44;5082893;56;1137198;-63
2023/08/02 17:50:36;;;;;;;2.02;1.82;;;;;;;23.72;66.50;98981.00;5150628;56;1136772;-65
2023/08/02 17:55:41;;;;;;;10.20;2.52;;;;;;;23.67;65.75;98957.98;5092026;56;1136546;-64
2023/08/02 18:00:47;;;;;;;5.73;2.37;;;;;;;23.61;64.87;98940.86;5058556;56;1138947;-65
2023/08/02 18:05:53;;;;;;;5.83;1.50;;;;;;;23.56;64.75;98925.91;5125378;56;1136375;-64
2023/08/02 18:11:04;;;;;;;3.67;1.52;;;;;;;23.51;64.20;98890.76;5060831;57;1136738;-65
2023/08/02 18:16:06;;;;;;;4.97;2.05;;;;;;;23.43;64.76;98842.53;5112501;55;1136432;-64
2023/08/02 18:21:12;;;;;;;1.95;1.85;;;;;;;23.34;65.19;98812.97;5111792;56;1136490;-65
2023/08/02 18:26:17;;;;;;;5.03;1.35;;;;;;;23.27;66.30;98879.73;5151153;56;1136607;-64
2023/08/02 18:31:23;;;;;;;2.70;1.15;;;;;;;23.21;66.69;98883.41;5120627;56;1136782;-65
2023/08/02 18:36:29;;;;;;;4.10;1.57;;;;;;;23.17;67.23;98910.03;5047517;57;1136563;-65
2023/08/02 18:41:35;;;;;;;5.20;1.47;;;;;;;23.14;67.13;98905.11;5067489;57;1137110;-64
2023/08/02 18:46:40;;;;;;;4.15;1.60;;;;;;;23.11;67.97;98910.45;5068896;56;1136970;-63
2023/08/02 18:51:46;;;;;;;3.58;1.40;;;;;;;23.03;66.65;98891.97;5111035;56;1137067;-64
2023/08/02 18:56:54;;;;;;;2.60;1.46;;;;;;;22.91;66.80;98873.66;5096663;56;1136851;-66
2023/08/02 19:01:59;;;;;;;3.22;1.65;;;;;;;22.78;68.13;98862.59;4964928;57;1136939;-65
2023/08/02 19:07:08;;;;;;;2.83;1.50;;;;;;;22.63;69.00;98874.36;4844571;58;1136627;-64
2023/08/02 19:12:20;;;;;;;2.35;1.50;;;;;;;22.46;69.98;98904.43;4966706;57;1136557;-67
2023/08/02 19:17:25;;;;;;;1.12;1.02;;;;;;;22.24;71.22;98898.83;4878138;58;1136474;-65
2023/08/02 19:22:32;;;;;;;2.95;1.90;;;;;;;22.10;71.94;98927.03;5074726;56;1136801;-67
2023/08/02 19:27:45;;;;;;;5.27;2.90;;;;;;;21.97;73.02;98938.81;5101444;55;1136762;-66
2023/08/02 19:32:53;;;;;;;2.58;1.80;;;;;;;21.93;73.64;98934.11;5127864;55;1136562;-69
2023/08/02 19:37:59;;;;;;;2.25;1.57;;;;;;;21.88;74.16;98940.70;5099156;56;1136571;-66
2023/08/02 19:43:04;;;;;;;7.83;2.08;;;;;;;21.83;74.75;98944.10;5095738;56;1136836;-67
2023/08/02 19:48:11;;;;;;;4.50;1.70;;;;;;;21.79;75.13;98937.53;5085111;56;1136938;-66
2023/08/02 19:53:18;;;;;;;4.28;1.77;;;;;;;21.77;75.61;98934.24;4976283;57;1136944;-66
2023/08/02 19:58:23;;;;;;;4.47;1.52;;;;;;;21.72;75.91;98947.55;5091280;56;1136517;-66
2023/08/02 20:03:31;;;;;;;3.20;2.40;;;;;;;21.61;76.68;98953.20;5089295;56;1136845;-66
2023/08/02 20:08:37;;;;;;;5.97;2.30;;;;;;;21.54;77.11;98948.42;5107147;56;1136534;-65
2023/08/02 20:13:50;;;;;;;5.92;4.03;;;;;;;21.49;77.52;98940.76;5113255;56;1136817;-66
2023/08/02 20:18:57;;;;;;;7.45;2.20;;;;;;;21.50;78.29;98933.81;4972054;56;1136413;-66
2023/08/02 20:24:02;;;;;;;3.60;1.40;;;;;;;21.50;78.63;98916.33;5024502;56;1136502;-66
2023/08/02 20:29:14;;;;;;;2.77;1.32;;;;;;;21.48;78.80;98896.90;4946127;57;1136849;-65
2023/08/02 20:34:21;;;;;;;3.37;1.53;;;;;;;21.46;79.08;98881.51;5043193;56;1136784;-66
2023/08/02 20:39:28;;;;;;;7.00;1.90;;;;;;;21.41;79.40;98870.08;5045047;56;1136854;-66
2023/08/02 20:44:33;;;;;;;5.35;1.50;;;;;;;21.37;79.64;98868.09;5090406;56;1136356;-66
2023/08/02 20:49:39;;;;;;;2.33;1.52;;;;;;;21.30;80.41;98868.70;5087208;56;1136510;-65
2023/08/02 20:54:45;;;;;;;4.15;1.32;;;;;;;21.21;81.15;98874.11;5080331;56;1136752;-66
2023/08/02 20:59:50;;;;;;;2.52;1.65;;;;;;;21.13;81.72;98868.48;5097391;56;1136943;-65
2023/08/02 21:04:56;;;;;;;4.03;1.80;;;;;;;21.11;82.66;98856.31;5080074;56;1136611;-67
2023/08/02 21:10:02;;;;;;;4.73;1.77;;;;;;;21.04;83.30;98852.38;4921015;57;1136778;-65
2023/08/02 21:15:10;;;;;;;2.60;1.72;;;;;;;20.95;85.39;98841.11;5094286;56;1136253;-67
2023/08/02 21:20:38;;;;;;;11.75;2.12;;;;;;;20.92;85.01;98852.34;5077914;56;1136924;-65
2023/08/02 21:25:47;;;;;;;2.77;1.50;;;;;;;20.82;86.13;98838.59;5057917;56;1138721;-65
2023/08/02 21:30:56;;;;;;;7.85;2.05;;;;;;;20.84;87.47;98858.52;5077706;56;1136887;-67
2023/08/02 21:36:02;;;;;;;7.22;1.67;;;;;;;20.79;87.41;98847.63;5077369;56;1136645;-65
2023/08/02 21:41:08;;;;;;;2.67;1.45;;;;;;;20.78;88.27;98828.55;5036364;57;1136663;-65
2023/08/02 21:46:16;;;;;;;1.50;1.40;;;;;;;20.79;88.78;98832.32;5038615;56;1136668;-65
2023/08/02 21:51:24;;;;;;;1.57;1.47;;;;;;;20.83;88.62;98817.92;5129414;56;1136796;-66
2023/08/02 21:56:30;;;;;;;3.25;1.40;;;;;;;20.86;88.60;98785.22;5056257;56;1136671;-65
2023/08/02 22:01:35;;;;;;;1.72;1.60;;;;;;;20.90;88.32;98803.88;5056165;56;1136700;-67
2023/08/02 22:06:41;;;;;;;2.92;1.12;;;;;;;20.89;88.54;98790.97;5122556;56;1136533;-66
2023/08/02 22:11:46;;;;;;;2.33;1.63;;;;;;;20.88;88.61;98782.61;5130290;56;1136567;-66
2023/08/02 22:16:52;;;;;;;1.67;1.57;;;;;;;20.85;88.83;98767.45;5130626;56;1136530;-66
2023/08/02 22:21:58;;;;;;;3.28;1.60;;;;;;;20.83;88.86;98757.45;5130534;56;1137070;-66
2023/08/02 22:27:03;;;;;;;4.30;1.42;;;;;;;20.74;89.11;98752.94;5154165;56;1136672;-66
2023/08/02 22:32:10;;;;;;;1.67;1.57;;;;;;;20.74;89.86;98785.18;5138631;56;1136745;-66
2023/08/02 22:37:15;;;;;;;3.65;1.57;;;;;;;20.68;89.99;98751.15;5140649;56;1136638;-66
2023/08/02 22:42:21;;;;;;;2.72;1.40;;;;;;;20.65;90.29;98759.66;5160701;56;1136950;-66
2023/08/02 22:47:27;;;;;;;6.03;1.50;;;;;;;20.58;90.72;98746.84;5128808;56;1137053;-66
2023/08/02 22:52:33;;;;;;;2.87;1.20;;;;;;;20.54;91.59;98751.84;5054549;56;1136950;-67
2023/08/02 22:57:44;;;;;;;1.57;0.98;;;;;;;20.50;91.66;98760.05;5065944;57;1136557;-66
2023/08/02 23:02:49;;;;;;;2.13;1.20;;;;;;;20.54;92.34;98734.91;5046002;57;1137082;-66
2023/08/02 23:07:55;;;;;;;1.57;1.42;;;;;;;20.51;92.46;98746.09;4968288;57;1136892;-66
2023/08/02 23:13:04;;;;;;;2.20;1.70;;;;;;;20.43;93.24;98774.63;4942363;57;1136670;-65
2023/08/02 23:18:12;;;;;;;3.10;1.47;;;;;;;20.33;93.91;98739.67;4961295;57;1136603;-65